createdAt,value
2023-03-20T00:00:40.074Z,1.3
2023-03-20T00:15:42.011Z,2
2023-03-20T00:30:40.186Z,2
2023-03-20T00:45:40.235Z,1.3
2023-03-20T01:00:40.676Z,1
2023-03-20T01:15:46.128Z,1.1
2023-03-20T01:30:52.895Z,3.1
2023-03-20T01:45:42.126Z,1.6
2023-03-20T02:00:43.149Z,1.4
2023-03-20T02:01:27.292Z,2
2023-03-20T02:15:43.287Z,1.6
2023-03-20T02:30:47.575Z,1.1
2023-03-20T02:45:45.494Z,1.2
2023-03-20T03:00:47.764Z,2.2
2023-03-20T03:15:47.363Z,3
2023-03-20T03:30:51.428Z,1.6
2023-03-20T03:45:49.089Z,2
2023-03-20T04:00:50.106Z,1.8
2023-03-20T04:15:49.324Z,1.6
2023-03-20T04:30:51.338Z,1.4
2023-03-20T04:45:57.779Z,1.7
2023-03-20T05:00:54.500Z,1.5
2023-03-20T05:15:54.451Z,2.1
2023-03-20T05:25:38.250Z,1.8
2023-03-20T05:40:42.034Z,1.7
2023-03-20T05:55:40.705Z,2.1
2023-03-20T06:10:39.579Z,2.5
2023-03-20T06:25:40.389Z,2.1
2023-03-20T06:40:42.168Z,2.3
2023-03-20T06:55:42.198Z,4.6
2023-03-20T07:10:56.881Z,3.3
2023-03-20T07:25:45.396Z,1.9
2023-03-20T07:40:43.272Z,2.3
2023-03-20T07:55:45.998Z,1.5
2023-03-20T08:10:43.785Z,1.7
2023-03-20T08:25:43.972Z,1.4
2023-03-20T08:41:11.648Z,0.8
2023-03-20T08:55:45.772Z,1.1
2023-03-20T09:10:48.246Z,1.7
2023-03-20T09:25:46.113Z,0.9
2023-03-20T09:40:47.143Z,1.4
2023-03-20T09:55:46.806Z,1.7
2023-03-20T10:10:50.352Z,1.8
2023-03-20T10:25:58.938Z,1.1
2023-03-20T10:40:50.624Z,1.5
2023-03-20T11:10:50.060Z,1.1
2023-03-20T11:25:54.088Z,1.1
2023-03-20T11:40:51.150Z,1.1
2023-03-20T11:55:54.112Z,1.2
2023-03-20T12:10:53.409Z,0.7
2023-03-20T12:25:52.172Z,0.6
2023-03-20T12:40:53.661Z,1.2
2023-03-20T12:56:04.715Z,1
2023-03-20T13:10:54.380Z,1.3
2023-03-20T13:25:59.009Z,2.9
2023-03-20T13:40:55.974Z,0.9
2023-03-20T13:55:56.016Z,0.8
2023-03-20T14:10:56.175Z,1.1
2023-03-20T14:26:06.122Z,1.1
2023-03-20T14:40:58.422Z,1.2
2023-03-20T14:55:58.750Z,1.3
2023-03-20T15:10:58.688Z,1.1
2023-03-20T15:25:58.948Z,1.8
2023-03-20T15:41:11.504Z,2.7
2023-03-20T15:56:18.520Z,1.3
2023-03-20T16:11:10.793Z,1.7
2023-03-20T16:26:01.079Z,2.4
2023-03-20T16:41:01.478Z,1.6
2023-03-20T16:56:03.059Z,2.6
2023-03-20T17:11:03.772Z,1.5
2023-03-20T17:26:03.689Z,1.6
2023-03-20T17:41:03.730Z,4.2
2023-03-20T17:56:06.453Z,3.5
2023-03-20T18:11:07.790Z,4.6
2023-03-20T18:26:07.928Z,4.5
2023-03-20T18:41:06.280Z,7.4
2023-03-20T18:56:15.423Z,5.1
2023-03-20T19:11:09.407Z,4.9
2023-03-20T19:26:41.320Z,6.2
2023-03-20T19:41:09.950Z,19
2023-03-20T19:56:08.714Z,9.7
2023-03-20T20:11:11.941Z,5.4
2023-03-20T20:26:09.587Z,15.6
2023-03-20T20:41:12.029Z,11.1
2023-03-20T20:56:10.476Z,7.1
2023-03-20T21:11:11.113Z,20.6
2023-03-20T21:26:41.493Z,28.6
2023-03-20T21:41:20.671Z,14.7
2023-03-20T22:28:00.718Z,4.9
2023-03-20T22:42:56.238Z,6.2
2023-03-20T22:56:14.644Z,7.4
2023-03-20T23:00:48.114Z,8.5
2023-03-20T23:15:36.231Z,6.6
2023-03-20T23:30:51.665Z,6.3
2023-03-20T23:45:40.477Z,6
